sensor_id;sensor_type;location;lat;lon;timestamp;P1;durP1;ratioP1;P2;durP2;ratioP2
22622;SDS011;11478;51.094;7.030;2024-01-30T00:00:39;17.05;;;10.52;;
22622;SDS011;11478;51.094;7.030;2024-01-30T00:03:06;14.80;;;10.73;;
22622;SDS011;11478;51.094;7.030;2024-01-30T00:05:32;16.02;;;10.23;;
22622;SDS011;11478;51.094;7.030;2024-01-30T00:07:57;17.55;;;10.55;;
22622;SDS011;11478;51.094;7.030;2024-01-30T00:10:28;17.23;;;10.45;;
22622;SDS011;11478;51.094;7.030;2024-01-30T00:12:56;16.43;;;10.43;;
22622;SDS011;11478;51.094;7.030;2024-01-30T00:15:22;14.70;;;10.88;;
22622;SDS011;11478;51.094;7.030;2024-01-30T00:17:48;17.98;;;11.05;;
22622;SDS011;11478;51.094;7.030;2024-01-30T00:20:14;17.73;;;11.18;;
22622;SDS011;11478;51.094;7.030;2024-01-30T00:22:39;16.88;;;10.38;;
22622;SDS011;11478;51.094;7.030;2024-01-30T00:25:13;18.63;;;11.00;;
22622;SDS011;11478;51.094;7.030;2024-01-30T00:27:39;16.75;;;10.82;;
22622;SDS011;11478;51.094;7.030;2024-01-30T00:30:18;17.92;;;10.88;;
22622;SDS011;11478;51.094;7.030;2024-01-30T00:32:44;17.00;;;10.77;;
22622;SDS011;11478;51.094;7.030;2024-01-30T00:35:15;18.65;;;11.27;;
22622;SDS011;11478;51.094;7.030;2024-01-30T00:37:41;17.05;;;11.98;;
22622;SDS011;11478;51.094;7.030;2024-01-30T00:40:08;18.88;;;11.15;;
22622;SDS011;11478;51.094;7.030;2024-01-30T00:42:40;16.52;;;11.15;;
22622;SDS011;11478;51.094;7.030;2024-01-30T00:45:18;18.92;;;11.82;;
22622;SDS011;11478;51.094;7.030;2024-01-30T00:47:44;19.10;;;12.50;;
22622;SDS011;11478;51.094;7.030;2024-01-30T00:50:10;18.98;;;11.98;;
22622;SDS011;11478;51.094;7.030;2024-01-30T00:52:36;18.60;;;12.55;;
22622;SDS011;11478;51.094;7.030;2024-01-30T00:55:05;18.58;;;12.55;;
22622;SDS011;11478;51.094;7.030;2024-01-30T00:57:31;17.52;;;12.80;;
22622;SDS011;11478;51.094;7.030;2024-01-30T00:59:59;17.00;;;11.75;;
22622;SDS011;11478;51.094;7.030;2024-01-30T01:02:25;21.15;;;12.02;;
22622;SDS011;11478;51.094;7.030;2024-01-30T01:04:52;20.27;;;12.52;;
22622;SDS011;11478;51.094;7.030;2024-01-30T01:07:17;18.15;;;12.70;;
22622;SDS011;11478;51.094;7.030;2024-01-30T01:09:51;18.38;;;12.23;;
22622;SDS011;11478;51.094;7.030;2024-01-30T01:12:16;18.05;;;12.70;;
22622;SDS011;11478;51.094;7.030;2024-01-30T01:14:52;21.00;;;13.23;;
22622;SDS011;11478;51.094;7.030;2024-01-30T01:17:18;18.10;;;12.82;;
22622;SDS011;11478;51.094;7.030;2024-01-30T01:19:44;16.98;;;12.98;;
22622;SDS011;11478;51.094;7.030;2024-01-30T01:22:10;18.42;;;12.55;;
22622;SDS011;11478;51.094;7.030;2024-01-30T01:24:38;20.30;;;13.20;;
22622;SDS011;11478;51.094;7.030;2024-01-30T01:27:04;21.20;;;13.57;;
22622;SDS011;11478;51.094;7.030;2024-01-30T01:29:31;21.58;;;13.32;;
22622;SDS011;11478;51.094;7.030;2024-01-30T01:32:01;21.00;;;13.60;;
22622;SDS011;11478;51.094;7.030;2024-01-30T01:34:27;21.27;;;13.57;;
22622;SDS011;11478;51.094;7.030;2024-01-30T01:36:56;22.83;;;13.38;;
22622;SDS011;11478;51.094;7.030;2024-01-30T01:39:22;21.13;;;13.82;;
22622;SDS011;11478;51.094;7.030;2024-01-30T01:41:51;20.77;;;14.13;;
22622;SDS011;11478;51.094;7.030;2024-01-30T01:44:17;22.00;;;14.48;;
22622;SDS011;11478;51.094;7.030;2024-01-30T01:46:54;21.27;;;13.95;;
22622;SDS011;11478;51.094;7.030;2024-01-30T01:49:29;20.27;;;13.80;;
22622;SDS011;11478;51.094;7.030;2024-01-30T01:51:57;21.50;;;14.57;;
22622;SDS011;11478;51.094;7.030;2024-01-30T01:54:24;19.85;;;14.15;;
22622;SDS011;11478;51.094;7.030;2024-01-30T01:56:55;21.75;;;14.10;;
22622;SDS011;11478;51.094;7.030;2024-01-30T01:59:21;24.50;;;15.38;;
22622;SDS011;11478;51.094;7.030;2024-01-30T02:01:51;20.85;;;14.10;;
22622;SDS011;11478;51.094;7.030;2024-01-30T02:04:18;22.75;;;14.80;;
22622;SDS011;11478;51.094;7.030;2024-01-30T02:06:44;21.10;;;14.80;;
22622;SDS011;11478;51.094;7.030;2024-01-30T02:09:10;19.63;;;14.30;;
22622;SDS011;11478;51.094;7.030;2024-01-30T02:11:36;21.83;;;14.75;;
22622;SDS011;11478;51.094;7.030;2024-01-30T02:14:03;20.48;;;14.88;;
22622;SDS011;11478;51.094;7.030;2024-01-30T02:16:29;24.75;;;15.13;;
22622;SDS011;11478;51.094;7.030;2024-01-30T02:18:55;22.30;;;15.05;;
22622;SDS011;11478;51.094;7.030;2024-01-30T02:21:21;23.05;;;14.10;;
22622;SDS011;11478;51.094;7.030;2024-01-30T02:23:47;19.13;;;14.70;;
22622;SDS011;11478;51.094;7.030;2024-01-30T02:26:14;23.50;;;14.45;;
22622;SDS011;11478;51.094;7.030;2024-01-30T02:28:56;24.58;;;15.15;;
22622;SDS011;11478;51.094;7.030;2024-01-30T02:31:22;21.40;;;15.25;;
22622;SDS011;11478;51.094;7.030;2024-01-30T02:33:53;19.35;;;13.93;;
22622;SDS011;11478;51.094;7.030;2024-01-30T02:36:19;24.30;;;14.48;;
22622;SDS011;11478;51.094;7.030;2024-01-30T02:38:48;22.92;;;15.23;;
22622;SDS011;11478;51.094;7.030;2024-01-30T02:41:14;19.50;;;14.18;;
22622;SDS011;11478;51.094;7.030;2024-01-30T02:43:41;20.67;;;14.57;;
22622;SDS011;11478;51.094;7.030;2024-01-30T02:46:07;26.80;;;15.38;;
22622;SDS011;11478;51.094;7.030;2024-01-30T02:48:32;22.60;;;15.32;;
22622;SDS011;11478;51.094;7.030;2024-01-30T02:51:00;27.02;;;15.32;;
22622;SDS011;11478;51.094;7.030;2024-01-30T02:53:26;22.83;;;14.82;;
22622;SDS011;11478;51.094;7.030;2024-01-30T02:56:10;24.58;;;15.70;;
22622;SDS011;11478;51.094;7.030;2024-01-30T02:58:37;27.90;;;15.43;;
22622;SDS011;11478;51.094;7.030;2024-01-30T03:01:02;22.52;;;15.13;;
22622;SDS011;11478;51.094;7.030;2024-01-30T03:03:28;25.15;;;16.15;;
22622;SDS011;11478;51.094;7.030;2024-01-30T03:05:58;22.40;;;15.85;;
22622;SDS011;11478;51.094;7.030;2024-01-30T03:08:24;23.77;;;15.52;;
22622;SDS011;11478;51.094;7.030;2024-01-30T03:10:50;27.75;;;16.33;;
22622;SDS011;11478;51.094;7.030;2024-01-30T03:13:16;27.80;;;16.88;;
22622;SDS011;11478;51.094;7.030;2024-01-30T03:15:42;26.92;;;16.75;;
22622;SDS011;11478;51.094;7.030;2024-01-30T03:18:08;26.42;;;16.23;;
22622;SDS011;11478;51.094;7.030;2024-01-30T03:20:34;23.85;;;16.73;;
22622;SDS011;11478;51.094;7.030;2024-01-30T03:23:00;28.60;;;17.75;;
22622;SDS011;11478;51.094;7.030;2024-01-30T03:25:26;30.45;;;17.45;;
22622;SDS011;11478;51.094;7.030;2024-01-30T03:27:52;33.72;;;18.05;;
22622;SDS011;11478;51.094;7.030;2024-01-30T03:30:18;27.42;;;17.63;;
22622;SDS011;11478;51.094;7.030;2024-01-30T03:32:45;29.55;;;17.90;;
22622;SDS011;11478;51.094;7.030;2024-01-30T03:35:11;32.15;;;18.60;;
22622;SDS011;11478;51.094;7.030;2024-01-30T03:37:51;25.08;;;17.48;;
22622;SDS011;11478;51.094;7.030;2024-01-30T03:40:17;25.17;;;16.65;;
22622;SDS011;11478;51.094;7.030;2024-01-30T03:45:55;26.90;;;16.27;;
22622;SDS011;11478;51.094;7.030;2024-01-30T03:48:23;26.33;;;16.90;;
22622;SDS011;11478;51.094;7.030;2024-01-30T03:50:49;27.80;;;16.48;;
22622;SDS011;11478;51.094;7.030;2024-01-30T03:53:17;27.95;;;16.88;;
22622;SDS011;11478;51.094;7.030;2024-01-30T03:55:43;29.52;;;17.60;;
22622;SDS011;11478;51.094;7.030;2024-01-30T04:00:40;26.25;;;16.88;;
22622;SDS011;11478;51.094;7.030;2024-01-30T04:03:16;28.13;;;16.73;;
22622;SDS011;11478;51.094;7.030;2024-01-30T04:05:42;31.42;;;17.75;;
22622;SDS011;11478;51.094;7.030;2024-01-30T04:08:08;43.22;;;33.78;;
22622;SDS011;11478;51.094;7.030;2024-01-30T04:10:34;27.30;;;17.08;;
22622;SDS011;11478;51.094;7.030;2024-01-30T04:15:37;26.95;;;16.00;;
22622;SDS011;11478;51.094;7.030;2024-01-30T04:18:03;27.20;;;16.52;;
22622;SDS011;11478;51.094;7.030;2024-01-30T04:23:20;25.48;;;15.63;;
22622;SDS011;11478;51.094;7.030;2024-01-30T04:25:46;24.63;;;16.05;;
22622;SDS011;11478;51.094;7.030;2024-01-30T04:28:12;22.83;;;15.75;;
22622;SDS011;11478;51.094;7.030;2024-01-30T04:30:53;21.55;;;15.32;;
22622;SDS011;11478;51.094;7.030;2024-01-30T04:33:19;26.05;;;15.68;;
22622;SDS011;11478;51.094;7.030;2024-01-30T04:36:02;23.45;;;15.35;;
22622;SDS011;11478;51.094;7.030;2024-01-30T04:38:29;26.67;;;14.90;;
22622;SDS011;11478;51.094;7.030;2024-01-30T04:40:55;22.63;;;14.93;;
22622;SDS011;11478;51.094;7.030;2024-01-30T04:43:21;25.80;;;15.40;;
22622;SDS011;11478;51.094;7.030;2024-01-30T04:46:06;21.95;;;14.45;;
22622;SDS011;11478;51.094;7.030;2024-01-30T04:48:31;22.92;;;15.27;;
22622;SDS011;11478;51.094;7.030;2024-01-30T04:50:58;24.13;;;14.52;;
22622;SDS011;11478;51.094;7.030;2024-01-30T04:53:24;22.83;;;14.43;;
22622;SDS011;11478;51.094;7.030;2024-01-30T04:58:34;27.83;;;14.98;;
22622;SDS011;11478;51.094;7.030;2024-01-30T05:01:02;33.83;;;17.75;;
22622;SDS011;11478;51.094;7.030;2024-01-30T05:03:28;21.65;;;14.55;;
22622;SDS011;11478;51.094;7.030;2024-01-30T05:05:54;20.40;;;14.27;;
22622;SDS011;11478;51.094;7.030;2024-01-30T05:08:20;19.52;;;13.80;;
22622;SDS011;11478;51.094;7.030;2024-01-30T05:11:01;25.70;;;15.27;;
22622;SDS011;11478;51.094;7.030;2024-01-30T05:13:31;19.55;;;13.52;;
22622;SDS011;11478;51.094;7.030;2024-01-30T05:15:57;22.52;;;13.80;;
22622;SDS011;11478;51.094;7.030;2024-01-30T05:18:31;22.88;;;14.40;;
22622;SDS011;11478;51.094;7.030;2024-01-30T05:23:27;23.13;;;13.27;;
22622;SDS011;11478;51.094;7.030;2024-01-30T05:25:53;22.23;;;14.27;;
22622;SDS011;11478;51.094;7.030;2024-01-30T05:28:31;20.13;;;13.80;;
22622;SDS011;11478;51.094;7.030;2024-01-30T05:30:57;19.83;;;13.20;;
22622;SDS011;11478;51.094;7.030;2024-01-30T05:33:25;22.00;;;14.38;;
22622;SDS011;11478;51.094;7.030;2024-01-30T05:35:51;20.92;;;14.20;;
22622;SDS011;11478;51.094;7.030;2024-01-30T05:38:19;24.55;;;14.32;;
22622;SDS011;11478;51.094;7.030;2024-01-30T05:40:45;21.10;;;14.35;;
22622;SDS011;11478;51.094;7.030;2024-01-30T05:43:11;25.13;;;14.10;;
22622;SDS011;11478;51.094;7.030;2024-01-30T05:45:37;27.65;;;14.63;;
22622;SDS011;11478;51.094;7.030;2024-01-30T05:48:05;24.33;;;14.25;;
22622;SDS011;11478;51.094;7.030;2024-01-30T05:50:31;20.63;;;13.30;;
22622;SDS011;11478;51.094;7.030;2024-01-30T05:52:57;19.58;;;13.35;;
22622;SDS011;11478;51.094;7.030;2024-01-30T05:55:23;27.38;;;14.48;;
22622;SDS011;11478;51.094;7.030;2024-01-30T05:58:01;25.48;;;14.52;;
22622;SDS011;11478;51.094;7.030;2024-01-30T06:00:27;20.58;;;14.57;;
22622;SDS011;11478;51.094;7.030;2024-01-30T06:05:46;28.00;;;14.33;;
22622;SDS011;11478;51.094;7.030;2024-01-30T06:08:14;24.38;;;15.18;;
22622;SDS011;11478;51.094;7.030;2024-01-30T06:10:40;21.13;;;13.73;;
22622;SDS011;11478;51.094;7.030;2024-01-30T06:13:06;23.58;;;14.68;;
22622;SDS011;11478;51.094;7.030;2024-01-30T06:15:32;22.30;;;14.07;;
22622;SDS011;11478;51.094;7.030;2024-01-30T06:17:58;21.58;;;14.52;;
22622;SDS011;11478;51.094;7.030;2024-01-30T06:20:36;23.92;;;13.30;;
22622;SDS011;11478;51.094;7.030;2024-01-30T06:23:02;21.90;;;14.40;;
22622;SDS011;11478;51.094;7.030;2024-01-30T06:25:37;23.70;;;15.02;;
22622;SDS011;11478;51.094;7.030;2024-01-30T06:28:03;23.30;;;14.23;;
22622;SDS011;11478;51.094;7.030;2024-01-30T06:30:29;23.73;;;15.25;;
22622;SDS011;11478;51.094;7.030;2024-01-30T06:32:55;19.98;;;13.82;;
22622;SDS011;11478;51.094;7.030;2024-01-30T06:35:22;22.73;;;14.65;;
22622;SDS011;11478;51.094;7.030;2024-01-30T06:37:51;25.13;;;14.55;;
22622;SDS011;11478;51.094;7.030;2024-01-30T06:40:36;23.25;;;14.77;;
22622;SDS011;11478;51.094;7.030;2024-01-30T06:43:09;23.80;;;15.55;;
22622;SDS011;11478;51.094;7.030;2024-01-30T06:45:35;26.67;;;15.45;;
22622;SDS011;11478;51.094;7.030;2024-01-30T06:48:00;23.88;;;15.73;;
22622;SDS011;11478;51.094;7.030;2024-01-30T06:50:26;23.02;;;14.88;;
22622;SDS011;11478;51.094;7.030;2024-01-30T06:53:01;26.02;;;16.40;;
22622;SDS011;11478;51.094;7.030;2024-01-30T06:55:27;28.40;;;16.30;;
22622;SDS011;11478;51.094;7.030;2024-01-30T06:57:53;26.10;;;17.60;;
22622;SDS011;11478;51.094;7.030;2024-01-30T07:00:19;25.92;;;16.30;;
22622;SDS011;11478;51.094;7.030;2024-01-30T07:02:50;28.33;;;17.08;;
22622;SDS011;11478;51.094;7.030;2024-01-30T07:05:16;26.02;;;16.52;;
22622;SDS011;11478;51.094;7.030;2024-01-30T07:07:43;27.48;;;17.42;;
22622;SDS011;11478;51.094;7.030;2024-01-30T07:10:09;27.27;;;17.13;;
22622;SDS011;11478;51.094;7.030;2024-01-30T07:12:35;27.60;;;16.52;;
22622;SDS011;11478;51.094;7.030;2024-01-30T07:15:01;24.35;;;15.70;;
22622;SDS011;11478;51.094;7.030;2024-01-30T07:17:28;25.13;;;16.17;;
22622;SDS011;11478;51.094;7.030;2024-01-30T07:20:08;27.25;;;16.63;;
22622;SDS011;11478;51.094;7.030;2024-01-30T07:22:34;24.08;;;15.73;;
22622;SDS011;11478;51.094;7.030;2024-01-30T07:25:13;25.20;;;16.15;;
22622;SDS011;11478;51.094;7.030;2024-01-30T07:27:39;26.80;;;15.90;;
22622;SDS011;11478;51.094;7.030;2024-01-30T07:30:05;23.95;;;15.85;;
22622;SDS011;11478;51.094;7.030;2024-01-30T07:32:37;25.63;;;15.00;;
22622;SDS011;11478;51.094;7.030;2024-01-30T07:35:03;24.33;;;16.35;;
22622;SDS011;11478;51.094;7.030;2024-01-30T07:37:29;25.00;;;15.70;;
22622;SDS011;11478;51.094;7.030;2024-01-30T07:39:55;24.55;;;15.15;;
22622;SDS011;11478;51.094;7.030;2024-01-30T07:42:21;27.27;;;15.32;;
22622;SDS011;11478;51.094;7.030;2024-01-30T07:44:47;23.63;;;14.32;;
22622;SDS011;11478;51.094;7.030;2024-01-30T07:50:08;20.55;;;14.73;;
22622;SDS011;11478;51.094;7.030;2024-01-30T07:52:38;23.70;;;14.52;;
22622;SDS011;11478;51.094;7.030;2024-01-30T07:55:09;22.15;;;14.48;;
22622;SDS011;11478;51.094;7.030;2024-01-30T07:57:38;23.48;;;14.75;;
22622;SDS011;11478;51.094;7.030;2024-01-30T08:00:05;21.13;;;13.85;;
22622;SDS011;11478;51.094;7.030;2024-01-30T08:02:34;23.77;;;14.55;;
22622;SDS011;11478;51.094;7.030;2024-01-30T08:05:01;22.60;;;15.45;;
22622;SDS011;11478;51.094;7.030;2024-01-30T08:07:28;25.42;;;14.38;;
22622;SDS011;11478;51.094;7.030;2024-01-30T08:09:55;27.88;;;15.40;;
22622;SDS011;11478;51.094;7.030;2024-01-30T08:12:22;22.17;;;14.18;;
22622;SDS011;11478;51.094;7.030;2024-01-30T08:14:48;21.88;;;14.90;;
22622;SDS011;11478;51.094;7.030;2024-01-30T08:17:14;23.92;;;14.73;;
22622;SDS011;11478;51.094;7.030;2024-01-30T08:19:40;24.45;;;15.40;;
22622;SDS011;11478;51.094;7.030;2024-01-30T08:22:12;22.27;;;14.57;;
22622;SDS011;11478;51.094;7.030;2024-01-30T08:24:38;22.30;;;14.82;;
22622;SDS011;11478;51.094;7.030;2024-01-30T08:27:22;24.75;;;14.90;;
22622;SDS011;11478;51.094;7.030;2024-01-30T08:29:48;24.13;;;14.82;;
22622;SDS011;11478;51.094;7.030;2024-01-30T08:32:19;22.75;;;14.68;;
22622;SDS011;11478;51.094;7.030;2024-01-30T08:34:45;19.88;;;13.63;;
22622;SDS011;11478;51.094;7.030;2024-01-30T08:37:12;19.60;;;13.10;;
22622;SDS011;11478;51.094;7.030;2024-01-30T08:39:41;19.77;;;13.63;;
22622;SDS011;11478;51.094;7.030;2024-01-30T08:42:13;19.63;;;13.20;;
22622;SDS011;11478;51.094;7.030;2024-01-30T08:44:39;20.92;;;13.43;;
22622;SDS011;11478;51.094;7.030;2024-01-30T08:47:09;18.80;;;13.88;;
22622;SDS011;11478;51.094;7.030;2024-01-30T08:49:35;20.00;;;13.88;;
22622;SDS011;11478;51.094;7.030;2024-01-30T08:52:03;20.88;;;14.15;;
22622;SDS011;11478;51.094;7.030;2024-01-30T08:54:29;22.75;;;13.57;;
22622;SDS011;11478;51.094;7.030;2024-01-30T08:57:05;20.48;;;13.23;;
22622;SDS011;11478;51.094;7.030;2024-01-30T08:59:31;17.85;;;13.00;;
22622;SDS011;11478;51.094;7.030;2024-01-30T09:04:29;19.40;;;12.43;;
22622;SDS011;11478;51.094;7.030;2024-01-30T09:07:06;18.33;;;12.15;;
22622;SDS011;11478;51.094;7.030;2024-01-30T09:09:34;19.67;;;12.10;;
22622;SDS011;11478;51.094;7.030;2024-01-30T09:12:02;19.42;;;12.13;;
22622;SDS011;11478;51.094;7.030;2024-01-30T09:14:32;17.35;;;12.02;;
22622;SDS011;11478;51.094;7.030;2024-01-30T09:17:00;18.67;;;12.50;;
22622;SDS011;11478;51.094;7.030;2024-01-30T09:19:31;50.22;;;14.75;;
22622;SDS011;11478;51.094;7.030;2024-01-30T09:21:57;70.07;;;15.68;;
22622;SDS011;11478;51.094;7.030;2024-01-30T09:24:24;48.85;;;15.15;;
22622;SDS011;11478;51.094;7.030;2024-01-30T09:26:55;29.33;;;12.18;;
22622;SDS011;11478;51.094;7.030;2024-01-30T09:29:29;20.13;;;11.35;;
22622;SDS011;11478;51.094;7.030;2024-01-30T09:32:05;51.60;;;14.32;;
22622;SDS011;11478;51.094;7.030;2024-01-30T09:34:32;26.42;;;11.60;;
22622;SDS011;11478;51.094;7.030;2024-01-30T09:37:03;25.67;;;11.90;;
22622;SDS011;11478;51.094;7.030;2024-01-30T09:39:29;16.75;;;10.43;;
22622;SDS011;11478;51.094;7.030;2024-01-30T09:42:00;20.73;;;10.85;;
22622;SDS011;11478;51.094;7.030;2024-01-30T09:44:36;12.90;;;9.52;;
22622;SDS011;11478;51.094;7.030;2024-01-30T09:47:04;18.75;;;12.18;;
22622;SDS011;11478;51.094;7.030;2024-01-30T09:49:32;16.40;;;10.38;;
22622;SDS011;11478;51.094;7.030;2024-01-30T09:54:54;18.20;;;13.00;;
22622;SDS011;11478;51.094;7.030;2024-01-30T09:57:21;21.15;;;13.32;;
22622;SDS011;11478;51.094;7.030;2024-01-30T09:59:47;17.60;;;10.65;;
22622;SDS011;11478;51.094;7.030;2024-01-30T10:02:25;34.58;;;17.13;;
22622;SDS011;11478;51.094;7.030;2024-01-30T10:04:52;33.55;;;19.73;;
22622;SDS011;11478;51.094;7.030;2024-01-30T10:07:18;15.40;;;10.20;;
22622;SDS011;11478;51.094;7.030;2024-01-30T10:12:14;14.23;;;9.25;;
22622;SDS011;11478;51.094;7.030;2024-01-30T10:14:42;15.23;;;9.18;;
22622;SDS011;11478;51.094;7.030;2024-01-30T10:17:09;11.77;;;8.85;;
22622;SDS011;11478;51.094;7.030;2024-01-30T10:19:37;14.57;;;8.57;;
22622;SDS011;11478;51.094;7.030;2024-01-30T10:22:09;16.23;;;8.50;;
22622;SDS011;11478;51.094;7.030;2024-01-30T10:24:35;12.65;;;8.55;;
22622;SDS011;11478;51.094;7.030;2024-01-30T10:29:37;15.00;;;8.48;;
22622;SDS011;11478;51.094;7.030;2024-01-30T10:32:14;13.27;;;7.78;;
22622;SDS011;11478;51.094;7.030;2024-01-30T10:34:41;9.27;;;7.20;;
22622;SDS011;11478;51.094;7.030;2024-01-30T10:37:17;11.05;;;6.80;;
22622;SDS011;11478;51.094;7.030;2024-01-30T10:39:44;11.80;;;6.85;;
22622;SDS011;11478;51.094;7.030;2024-01-30T10:42:18;11.43;;;6.75;;
22622;SDS011;11478;51.094;7.030;2024-01-30T10:47:21;12.20;;;7.22;;
22622;SDS011;11478;51.094;7.030;2024-01-30T10:49:53;11.18;;;6.55;;
22622;SDS011;11478;51.094;7.030;2024-01-30T10:52:22;9.40;;;6.38;;
22622;SDS011;11478;51.094;7.030;2024-01-30T10:54:53;10.65;;;6.68;;
22622;SDS011;11478;51.094;7.030;2024-01-30T10:57:22;12.13;;;7.40;;
22622;SDS011;11478;51.094;7.030;2024-01-30T10:59:49;9.27;;;6.35;;
22622;SDS011;11478;51.094;7.030;2024-01-30T11:02:19;11.75;;;6.50;;
22622;SDS011;11478;51.094;7.030;2024-01-30T11:04:45;10.00;;;6.70;;
22622;SDS011;11478;51.094;7.030;2024-01-30T11:07:24;8.55;;;5.88;;
22622;SDS011;11478;51.094;7.030;2024-01-30T11:09:52;11.35;;;6.38;;
22622;SDS011;11478;51.094;7.030;2024-01-30T11:12:37;11.43;;;6.80;;
22622;SDS011;11478;51.094;7.030;2024-01-30T11:15:09;21.02;;;10.10;;
22622;SDS011;11478;51.094;7.030;2024-01-30T11:17:51;13.48;;;6.45;;
22622;SDS011;11478;51.094;7.030;2024-01-30T11:20:30;11.27;;;6.30;;
22622;SDS011;11478;51.094;7.030;2024-01-30T11:22:59;10.25;;;7.13;;
22622;SDS011;11478;51.094;7.030;2024-01-30T11:28:03;10.20;;;5.60;;
22622;SDS011;11478;51.094;7.030;2024-01-30T11:30:30;10.02;;;6.40;;
22622;SDS011;11478;51.094;7.030;2024-01-30T11:33:13;8.50;;;6.28;;
22622;SDS011;11478;51.094;7.030;2024-01-30T11:35:43;11.45;;;6.43;;
22622;SDS011;11478;51.094;7.030;2024-01-30T11:38:26;14.13;;;6.38;;
22622;SDS011;11478;51.094;7.030;2024-01-30T11:40:53;10.00;;;5.63;;
22622;SDS011;11478;51.094;7.030;2024-01-30T11:43:24;9.27;;;6.13;;
22622;SDS011;11478;51.094;7.030;2024-01-30T11:45:50;13.57;;;6.35;;
22622;SDS011;11478;51.094;7.030;2024-01-30T11:48:16;9.10;;;5.40;;
22622;SDS011;11478;51.094;7.030;2024-01-30T11:50:42;11.25;;;6.15;;
22622;SDS011;11478;51.094;7.030;2024-01-30T11:53:13;10.55;;;5.80;;
22622;SDS011;11478;51.094;7.030;2024-01-30T11:55:40;10.20;;;5.88;;
22622;SDS011;11478;51.094;7.030;2024-01-30T11:58:07;8.85;;;5.50;;
22622;SDS011;11478;51.094;7.030;2024-01-30T12:00:33;8.75;;;5.25;;
22622;SDS011;11478;51.094;7.030;2024-01-30T12:03:10;10.60;;;5.53;;
22622;SDS011;11478;51.094;7.030;2024-01-30T12:05:36;12.10;;;6.63;;
22622;SDS011;11478;51.094;7.030;2024-01-30T12:08:08;11.40;;;7.15;;
22622;SDS011;11478;51.094;7.030;2024-01-30T12:10:40;15.75;;;9.93;;
22622;SDS011;11478;51.094;7.030;2024-01-30T12:13:06;16.05;;;8.02;;
22622;SDS011;11478;51.094;7.030;2024-01-30T12:15:32;12.50;;;6.88;;
22622;SDS011;11478;51.094;7.030;2024-01-30T12:18:07;13.10;;;6.35;;
22622;SDS011;11478;51.094;7.030;2024-01-30T12:20:33;12.68;;;7.28;;
22622;SDS011;11478;51.094;7.030;2024-01-30T12:23:00;10.82;;;6.78;;
22622;SDS011;11478;51.094;7.030;2024-01-30T12:25:26;13.20;;;7.95;;
22622;SDS011;11478;51.094;7.030;2024-01-30T12:30:38;13.82;;;8.80;;
22622;SDS011;11478;51.094;7.030;2024-01-30T12:33:06;13.93;;;7.43;;
22622;SDS011;11478;51.094;7.030;2024-01-30T12:35:34;10.90;;;7.10;;
22622;SDS011;11478;51.094;7.030;2024-01-30T12:38:00;13.85;;;7.68;;
22622;SDS011;11478;51.094;7.030;2024-01-30T12:40:26;10.10;;;6.38;;
22622;SDS011;11478;51.094;7.030;2024-01-30T12:42:58;12.07;;;6.80;;
22622;SDS011;11478;51.094;7.030;2024-01-30T12:45:24;10.65;;;6.78;;
22622;SDS011;11478;51.094;7.030;2024-01-30T12:47:50;14.25;;;7.15;;
22622;SDS011;11478;51.094;7.030;2024-01-30T12:50:16;17.20;;;7.60;;
22622;SDS011;11478;51.094;7.030;2024-01-30T12:52:56;13.32;;;7.43;;
22622;SDS011;11478;51.094;7.030;2024-01-30T12:55:37;12.35;;;7.43;;
22622;SDS011;11478;51.094;7.030;2024-01-30T12:58:04;15.75;;;7.70;;
22622;SDS011;11478;51.094;7.030;2024-01-30T13:00:30;11.20;;;7.03;;
22622;SDS011;11478;51.094;7.030;2024-01-30T13:03:02;12.35;;;6.68;;
22622;SDS011;11478;51.094;7.030;2024-01-30T13:05:28;16.63;;;9.52;;
22622;SDS011;11478;51.094;7.030;2024-01-30T13:08:05;13.13;;;7.60;;
22622;SDS011;11478;51.094;7.030;2024-01-30T13:10:31;13.68;;;7.43;;
22622;SDS011;11478;51.094;7.030;2024-01-30T13:12:59;17.40;;;7.65;;
22622;SDS011;11478;51.094;7.030;2024-01-30T13:15:30;11.38;;;7.47;;
22622;SDS011;11478;51.094;7.030;2024-01-30T13:20:44;10.48;;;7.13;;
22622;SDS011;11478;51.094;7.030;2024-01-30T13:23:18;13.95;;;6.57;;
22622;SDS011;11478;51.094;7.030;2024-01-30T13:25:44;16.52;;;8.15;;
22622;SDS011;11478;51.094;7.030;2024-01-30T13:28:19;16.17;;;8.07;;
22622;SDS011;11478;51.094;7.030;2024-01-30T13:30:45;13.55;;;8.02;;
22622;SDS011;11478;51.094;7.030;2024-01-30T13:33:12;13.63;;;7.72;;
22622;SDS011;11478;51.094;7.030;2024-01-30T13:35:37;15.73;;;7.18;;
22622;SDS011;11478;51.094;7.030;2024-01-30T13:38:14;14.50;;;8.55;;
22622;SDS011;11478;51.094;7.030;2024-01-30T13:40:43;17.40;;;8.43;;
22622;SDS011;11478;51.094;7.030;2024-01-30T13:43:09;15.90;;;8.60;;
22622;SDS011;11478;51.094;7.030;2024-01-30T13:45:38;16.50;;;9.10;;
22622;SDS011;11478;51.094;7.030;2024-01-30T13:48:18;14.98;;;9.02;;
22622;SDS011;11478;51.094;7.030;2024-01-30T13:53:30;15.50;;;8.77;;
22622;SDS011;11478;51.094;7.030;2024-01-30T13:56:00;18.73;;;8.45;;
22622;SDS011;11478;51.094;7.030;2024-01-30T13:58:26;14.27;;;7.60;;
22622;SDS011;11478;51.094;7.030;2024-01-30T14:00:52;11.48;;;7.47;;
22622;SDS011;11478;51.094;7.030;2024-01-30T14:03:18;16.83;;;8.60;;
22622;SDS011;11478;51.094;7.030;2024-01-30T14:05:48;14.05;;;7.53;;
22622;SDS011;11478;51.094;7.030;2024-01-30T14:08:14;12.30;;;7.47;;
22622;SDS011;11478;51.094;7.030;2024-01-30T14:10:42;19.02;;;8.18;;
22622;SDS011;11478;51.094;7.030;2024-01-30T14:13:08;13.10;;;6.93;;
22622;SDS011;11478;51.094;7.030;2024-01-30T14:15:36;15.55;;;7.75;;
22622;SDS011;11478;51.094;7.030;2024-01-30T14:18:02;13.43;;;8.07;;
22622;SDS011;11478;51.094;7.030;2024-01-30T14:20:38;16.45;;;8.38;;
22622;SDS011;11478;51.094;7.030;2024-01-30T14:23:04;14.55;;;7.72;;
22622;SDS011;11478;51.094;7.030;2024-01-30T14:25:33;17.30;;;8.25;;
22622;SDS011;11478;51.094;7.030;2024-01-30T14:28:01;11.35;;;7.03;;
22622;SDS011;11478;51.094;7.030;2024-01-30T14:30:27;14.48;;;7.18;;
22622;SDS011;11478;51.094;7.030;2024-01-30T14:32:59;13.93;;;7.30;;
22622;SDS011;11478;51.094;7.030;2024-01-30T14:35:25;14.15;;;7.28;;
22622;SDS011;11478;51.094;7.030;2024-01-30T14:37:51;16.40;;;7.40;;
22622;SDS011;11478;51.094;7.030;2024-01-30T14:40:17;15.50;;;7.38;;
22622;SDS011;11478;51.094;7.030;2024-01-30T14:45:22;15.50;;;8.15;;
22622;SDS011;11478;51.094;7.030;2024-01-30T14:47:50;12.25;;;7.28;;
22622;SDS011;11478;51.094;7.030;2024-01-30T14:50:16;20.67;;;10.65;;
22622;SDS011;11478;51.094;7.030;2024-01-30T14:52:57;19.13;;;9.40;;
22622;SDS011;11478;51.094;7.030;2024-01-30T14:55:22;16.98;;;8.25;;
22622;SDS011;11478;51.094;7.030;2024-01-30T14:57:55;17.77;;;9.00;;
22622;SDS011;11478;51.094;7.030;2024-01-30T15:00:21;15.75;;;7.78;;
22622;SDS011;11478;51.094;7.030;2024-01-30T15:02:52;16.33;;;10.00;;
22622;SDS011;11478;51.094;7.030;2024-01-30T15:05:18;14.95;;;8.23;;
22622;SDS011;11478;51.094;7.030;2024-01-30T15:08:02;19.30;;;8.18;;
22622;SDS011;11478;51.094;7.030;2024-01-30T15:10:29;15.60;;;7.68;;
22622;SDS011;11478;51.094;7.030;2024-01-30T15:13:09;15.70;;;9.32;;
22622;SDS011;11478;51.094;7.030;2024-01-30T15:15:36;15.02;;;8.10;;
22622;SDS011;11478;51.094;7.030;2024-01-30T15:20:31;18.65;;;10.07;;
22622;SDS011;11478;51.094;7.030;2024-01-30T15:23:01;18.10;;;7.65;;
22622;SDS011;11478;51.094;7.030;2024-01-30T15:25:27;18.40;;;10.93;;